KGON/GON METAR and TAF weather

Enter ICAO airport designator
Station Type Date Time Source
KGON METAR 2020/09/22 20:56 UTC NOAA

KGON 222056Z 34014G19KT 10SM CLR 19/M03 A2982 RMK AO2 SLP099 T01891028 56034


Station Type Date Time Source
KGON Decoded METAR 2020/09/22 20:56 UTC NOAA

GROTON/NEW LONDON AIRPORT , CT, United States (KGON) 41-20N 72-03W 3M
Sep 22, 2020 - 04:56 PM EDT / 2020.09.22 2056 UTC
Wind: from the NNW (340 degrees) at 16 MPH (14 KT) gusting to 22 MPH (19 KT):0
Visibility: 10 mile(s):0
Sky conditions: clear
Temperature: 66.0 F (18.9 C)
Dew Point: 27.0 F (-2.8 C)
Relative Humidity: 22%
Pressure (altimeter): 29.82 in. Hg (1009 hPa)
Pressure tendency: 0.10 inches (3.4 hPa) lower than three hours ago
ob: KGON 222056Z 34014G19KT 10SM CLR 19/M03 A2982 RMK AO2 SLP099 T01891028 56034
cycle: 21

Station Type Date Time Source
KGON TAF 2020/09/22 21:36 UTC NOAA

TAF
AMD KGON 222033Z 2221/2318 34015G25KT P6SM FEW250
FM230100 33012KT P6SM SKC
FM230300 32008KT P6SM SKC
FM231700 28013KT P6SM SKC

Example: see airport list